createdAt,value
2023-04-19T00:03:01.262Z,14.90
2023-04-19T00:13:04.525Z,15.00
2023-04-19T00:23:07.715Z,14.60
2023-04-19T00:33:13.162Z,15.40
2023-04-19T00:43:19.936Z,15.80
2023-04-19T00:53:23.018Z,14.80
2023-04-19T01:03:29.610Z,13.60
2023-04-19T01:14:05.480Z,14.00
2023-04-19T01:24:08.607Z,14.70
2023-04-19T01:34:11.660Z,13.90
2023-04-19T01:44:15.069Z,14.30
2023-04-19T01:54:18.388Z,13.60
2023-04-19T02:04:22.304Z,15.60
2023-04-19T02:14:26.077Z,17.00
2023-04-19T02:24:29.760Z,15.50
2023-04-19T02:34:34.790Z,15.20
2023-04-19T02:44:38.090Z,14.70
2023-04-19T02:55:13.158Z,15.80
2023-04-19T03:05:17.234Z,14.70
2023-04-19T03:15:20.859Z,13.00
2023-04-19T03:25:23.964Z,11.20
2023-04-19T03:36:07.180Z,11.80
2023-04-19T03:46:43.681Z,12.90
2023-04-19T03:56:48.145Z,12.40
2023-04-19T04:06:51.881Z,14.90
2023-04-19T04:17:27.764Z,13.50
2023-04-19T04:27:31.556Z,18.10
2023-04-19T04:37:35.750Z,20.70
2023-04-19T04:48:11.692Z,23.50
2023-04-19T04:58:15.040Z,22.70
2023-04-19T05:08:45.195Z,24.00
2023-04-19T05:18:55.683Z,22.70
2023-04-19T05:28:59.915Z,20.20
2023-04-19T05:39:21.326Z,21.50
2023-04-19T05:49:56.548Z,22.30
2023-04-19T06:00:13.546Z,20.70
2023-04-19T06:10:16.650Z,18.30
2023-04-19T06:20:19.869Z,18.10
2023-04-19T06:30:55.742Z,17.70
2023-04-19T06:41:30.380Z,17.10
2023-04-19T06:51:34.015Z,17.50
2023-04-19T07:01:38.432Z,16.00
2023-04-19T07:11:41.730Z,16.70
2023-04-19T07:21:44.895Z,17.20
2023-04-19T07:31:48.278Z,15.70
2023-04-19T07:42:24.727Z,13.50
2023-04-19T07:52:27.850Z,12.90
2023-04-19T08:02:31.273Z,13.00
2023-04-19T08:12:42.703Z,12.10
2023-04-19T08:23:31.810Z,12.90
2023-04-19T08:33:41.140Z,13.10
2023-04-19T08:43:44.319Z,14.10
2023-04-19T08:53:49.782Z,14.40
2023-04-19T09:04:04.922Z,13.30
2023-04-19T09:14:16.540Z,13.30
2023-04-19T09:24:19.718Z,11.50
2023-04-19T09:34:24.190Z,11.60
2023-04-19T09:54:34.325Z,10.60
2023-04-19T10:05:20.460Z,8.60
2023-04-19T10:16:15.497Z,8.00
2023-04-19T10:26:22.410Z,6.30
2023-04-19T10:36:58.066Z,5.60
2023-04-19T10:47:01.221Z,7.10
2023-04-19T10:57:06.446Z,7.60
2023-04-19T11:07:09.763Z,6.90
2023-04-19T11:17:18.111Z,8.00
2023-04-19T11:27:53.788Z,8.00
2023-04-19T11:38:29.022Z,7.30
2023-04-19T11:48:36.320Z,6.60
2023-04-19T11:58:52.166Z,7.30
2023-04-19T12:08:59.848Z,7.70
2023-04-19T12:19:58.396Z,8.40
2023-04-19T12:30:01.935Z,8.30
2023-04-19T12:40:10.194Z,7.80
2023-04-19T12:50:46.124Z,9.40
2023-04-19T13:01:21.402Z,9.20
2023-04-19T13:11:24.606Z,9.30
2023-04-19T13:21:28.194Z,13.80
2023-04-19T13:32:07.845Z,15.60
2023-04-19T13:42:24.539Z,19.90
2023-04-19T13:52:35.511Z,12.00
2023-04-19T14:02:42.314Z,11.30
2023-04-19T14:13:29.681Z,11.20
2023-04-19T14:24:07.878Z,13.90
2023-04-19T14:34:13.858Z,10.70
2023-04-19T14:44:22.632Z,10.50
2023-04-19T14:54:28.548Z,13.00
2023-04-19T15:05:04.696Z,14.60
2023-04-19T15:15:11.206Z,17.00
2023-04-19T15:25:14.714Z,19.50
2023-04-19T15:35:18.004Z,19.50
2023-04-19T15:45:53.416Z,19.70
2023-04-19T15:56:02.369Z,19.40
2023-04-19T16:06:09.353Z,21.10
2023-04-19T16:16:55.599Z,20.40
2023-04-19T16:27:31.433Z,21.60
2023-04-19T16:37:35.424Z,20.60
2023-04-19T16:47:46.457Z,20.00
2023-04-19T17:08:46.084Z,17.30
2023-04-19T17:18:49.158Z,17.60
2023-04-19T17:28:52.248Z,18.40
2023-04-19T17:38:55.287Z,16.90
2023-04-19T17:48:58.522Z,17.20
2023-04-19T17:59:03.897Z,16.70
2023-04-19T18:09:07.799Z,21.50
2023-04-19T18:19:11.057Z,22.00
2023-04-19T18:29:16.084Z,20.10
2023-04-19T18:39:19.430Z,22.60
2023-04-19T18:49:25.808Z,23.60
2023-04-19T18:59:29.010Z,22.60
2023-04-19T19:09:32.044Z,21.30
2023-04-19T19:19:35.581Z,22.20
2023-04-19T19:29:38.914Z,22.90
2023-04-19T19:39:42.009Z,21.40
2023-04-19T19:50:09.706Z,21.30
2023-04-19T20:00:31.913Z,20.30
2023-04-19T20:10:34.203Z,21.90
2023-04-19T20:20:37.587Z,20.50
2023-04-19T20:30:41.231Z,20.50
2023-04-19T20:40:44.745Z,20.80
2023-04-19T20:50:47.786Z,24.50
2023-04-19T21:00:51.254Z,21.80
2023-04-19T21:10:54.346Z,20.30
2023-04-19T21:20:59.076Z,20.40
2023-04-19T21:31:02.734Z,20.90
2023-04-19T21:41:07.412Z,19.60
2023-04-19T21:51:12.853Z,24.40
2023-04-19T22:11:20.252Z,23.80
2023-04-19T22:21:25.492Z,24.80
2023-04-19T22:31:28.806Z,24.20
2023-04-19T22:41:33.484Z,23.90
2023-04-19T22:51:39.700Z,26.40
2023-04-19T23:01:43.168Z,30.10
2023-04-19T23:11:47.379Z,27.70
2023-04-19T23:21:50.455Z,28.60
2023-04-19T23:31:53.653Z,29.50
2023-04-19T23:41:56.790Z,28.70
2023-04-19T23:52:00.124Z,27.80
